Terminal Aerodrome Forecast
Issued by NWS

Home | Current Version | Previous Version | Text Only | Print | Product List | Glossary On
Versions: 1 2 3 4 5 6 7 8 9 10 11 12 13 14 15 16 17 18 19 20 21 22 23 24 25 26 27 28 29 30 31 32 33 34 35 36 37 38 39 40 41 42 43 44 45 46 47 48 49 50
000
FTUS41 KRNK 041723
TAFBCB
TAF
KBCB 041723Z 0418/0518 VRB03KT P6SM -DZ SCT015 OVC028
     FM042200 26006KT 6SM -RA OVC015
     FM050000 32008KT 4SM -RA BR OVC012
     FM050600 33005KT 3SM -RA BR OVC008
     FM050900 33004KT 2SM -RAPL BR OVC006
     FM051400 34004KT 1/2SM SN FG OVC003=

USA.gov is the U.S. government's official web portal to all federal, state and local government web resources and services.